Nearby METAR Reports

 

KBVO - Bartlesville, Oklahoma, USA
Distance from station: WNW 10mi, 16km
Updated: Sun, 03-Mar-2024 10:53am CST
Clear
Clear
 Wind from SSW
Wind: SSW 17 mph , 28 km/h, Gust: 33 mph , 54 km/h
Temperature: 73°F , 23°C
Dew Point: 55°F , 13°C
Humidity: 53%
Barometer: 29.75 inHg , 1007.5 hPa
Clouds: Clear
Visibility: 10 miles , 16 km
2024/03/03 16:53 KBVO 031653Z AUTO 20015G29KT 10SM CLR 23/13 A2975 RMK AO2 PK WND 19032/1603 SLP063 T02330128
KCFV - Coffeyville, Kansas, USA
Distance from station: NNE 31mi, 49km
Updated: Sun, 03-Mar-2024 11:31am CST
Haze, Clear
Haze, Clear
 Wind from S
Wind: S 30 mph , 48 km/h, Gust: 43 mph , 69 km/h
Temperature: 75°F , 24°C
Dew Point: 54°F , 12°C
Humidity: 47%
Barometer: 29.71 inHg , 1006.1 hPa
Summary: Haze
Clouds: Clear
Visibility: less than 1/4 mile , 0.4 km
2024/03/03 17:31 KCFV 031731Z AUTO 19026G37KT M1/4SM HZ CLR 24/12 A2971 RMK AO2 PK WND 18037/1730 T02390122
 
KIDP - Independence, Kansas, USA
Distance from station: N 32mi, 52km
Updated: Sun, 03-Mar-2024 11:35am CST
Clear
Clear
 Wind from S
Wind: S 26 mph , 43 km/h, Gust: 33 mph , 54 km/h
Temperature: 75°F , 24°C
Dew Point: 54°F , 12°C
Humidity: 47%
Barometer: 29.71 inHg , 1006.1 hPa
Clouds: Clear
Visibility: 10 miles , 16 km
2024/03/03 17:35 KIDP 031735Z AUTO 19023G29KT 10SM CLR 24/12 A2971 RMK AO2 T02420118
KGCM - Claremore, Oklahoma, USA
Distance from station: SE 35mi, 56km
Updated: Sun, 03-Mar-2024 11:35am CST
Clear
Clear
 Wind from S
Wind: S 26 mph , 43 km/h, Gust: 35 mph , 56 km/h
Temperature: 73°F , 23°C
Dew Point: 61°F , 16°C
Humidity: 65%
Barometer: 29.78 inHg , 1008.5 hPa
Clouds: Clear
Visibility: 10 miles , 16 km
2024/03/03 17:35 KGCM 031735Z AUTO 19023G30KT 10SM CLR 23/16 A2978 RMK AO2
 
KTUL - Tulsa, Oklahoma, USA
Distance from station: S 35mi, 56km
Updated: Sun, 03-Mar-2024 10:53am CST
Partly cloudy
Partly cloudy
 Wind from S
Wind: S 23 mph , 37 km/h, Gust: 35 mph , 56 km/h
Temperature: 73°F , 23°C
Dew Point: 55°F , 13°C
Humidity: 53%
Barometer: 29.78 inHg , 1008.5 hPa
Clouds: Partly cloudy
Visibility: 10 miles , 16 km
Cloud details: Few Clouds 2600 ft
Partly cloudy 25000 ft
2024/03/03 16:53 KTUL 031653Z 19020G30KT 10SM FEW026 SCT250 23/13 A2978 RMK AO2 PK WND 19031/1607 SLP077 T02280133
KRVS - Tulsa, Oklahoma, USA
Distance from station: S 46mi, 74km
Updated: Sun, 03-Mar-2024 10:53am CST
Clear
Clear
 Wind from S
Wind: S 14 mph , 22 km/h, Gust: 30 mph , 48 km/h
Temperature: 72°F , 22°C
Dew Point: 55°F , 13°C
Humidity: 57%
Barometer: 29.79 inHg , 1008.8 hPa
Clouds: Clear
Visibility: 10 miles , 16 km
2024/03/03 16:53 KRVS 031653Z 19012G26KT 10SM CLR 22/13 A2979 RMK AO2 PK WND 19026/1646 SLP092 T02220128
 
KPPF - Parsons, Kansas, USA
Distance from station: NNE 48mi, 76km
Updated: Sun, 03-Mar-2024 10:52am CST
Clear
Clear
 Wind from S
Wind: S 21 mph , 33 km/h, Gust: 36 mph , 57 km/h
Temperature: 73°F , 23°C
Dew Point: 54°F , 12°C
Humidity: 50%
Barometer: 29.73 inHg , 1006.8 hPa
Clouds: Clear
Visibility: 10 miles , 16 km
2024/03/03 16:52 KPPF 031652Z AUTO 19018G31KT 10SM CLR 23/12 A2973 RMK AO2 PK WND 19035/1632 SLP059 T02280122
KGMJ - Grove, Oklahoma, USA
Distance from station: E 63mi, 101km
Updated: Sun, 03-Mar-2024 11:35am CST
Clear
Clear
 Wind from SSW
Wind: SSW 23 mph , 37 km/h
Temperature: 75°F , 24°C
Dew Point: 54°F , 12°C
Humidity: 47%
Barometer: 29.78 inHg , 1008.5 hPa
Clouds: Clear
Visibility: 10 miles , 16 km
2024/03/03 17:35 KGMJ 031735Z AUTO 21020KT 10SM CLR 24/12 A2978 RMK AO2 TSNO
 
KPNC - Ponca City, Oklahoma, USA
Distance from station: W 69mi, 111km
Updated: Sun, 03-Mar-2024 10:53am CST
Clear
Clear
 Wind from SSW
Wind: SSW 18 mph , 30 km/h, Gust: 35 mph , 56 km/h
Temperature: 73°F , 23°C
Dew Point: 43°F , 6°C
Humidity: 33%
Barometer: 29.72 inHg , 1006.4 hPa
Clouds: Clear
Visibility: 10 miles , 16 km
2024/03/03 16:53 KPNC 031653Z AUTO 21016G30KT 10SM CLR 23/06 A2972 RMK AO2 PK WND 21030/1649 SLP052 T02330056
KCNU - Chanute, Kansas, USA
Distance from station: NNE 69mi, 112km
Updated: Sun, 03-Mar-2024 10:52am CST
Clear
Clear
 Wind from S
Wind: S 29 mph , 46 km/h, Gust: 41 mph , 67 km/h
Temperature: 73°F , 23°C
Dew Point: 54°F , 12°C
Humidity: 50%
Barometer: 29.69 inHg , 1005.4 hPa
Clouds: Clear
Visibility: 10 miles , 16 km
2024/03/03 16:52 KCNU 031652Z AUTO 19025G36KT 10SM CLR 23/12 A2969 RMK AO2 PK WND 20038/1556 SLP043 T02330122